Time;durP1;ratioP1;P1;durP2;ratioP2;P2;SDS_P1;SDS_P2;PMS_P1;PMS_P2;Temp;Humidity;BMP_temperature;BMP_pressure;BME280_temperature;BME280_humidity;BME280_pressure;Samples;Min_cycle;Max_cycle;Signal;HPM_P1;HPM_P2
2022/05/30 00:00:31;;;;;;;3.63;2.40;;;22.30;49.00;;;;;;6160549;28;80451;-68
2022/05/30 00:03:32;;;;;;;5.60;2.40;;;22.30;49.10;;;;;;6153086;28;80924;-68
2022/05/30 00:06:32;;;;;;;4.55;2.10;;;22.30;49.20;;;;;;6158016;28;80306;-69
2022/05/30 00:09:33;;;;;;;5.10;1.88;;;22.30;49.00;;;;;;6159948;28;81770;-69
2022/05/30 00:12:34;;;;;;;2.60;1.90;;;22.30;49.20;;;;;;6162098;28;80139;-69
2022/05/30 00:15:36;;;;;;;4.50;2.10;;;22.30;49.10;;;;;;6156685;28;80454;-69
2022/05/30 00:18:36;;;;;;;4.35;2.20;;;22.20;49.10;;;;;;6153463;28;81310;-69
2022/05/30 00:21:37;;;;;;;4.47;1.73;;;22.20;49.40;;;;;;6159470;28;80536;-69
2022/05/30 00:24:37;;;;;;;4.90;2.38;;;22.20;49.30;;;;;;6161593;28;80305;-69
2022/05/30 00:27:38;;;;;;;4.13;2.28;;;22.20;49.10;;;;;;6160296;28;80634;-70
2022/05/30 00:30:38;;;;;;;5.15;2.50;;;22.20;49.20;;;;;;6150201;28;80922;-69
2022/05/30 00:33:39;;;;;;;4.03;2.17;;;22.20;49.50;;;;;;6158963;28;80462;-69
2022/05/30 00:36:39;;;;;;;3.80;2.28;;;22.20;49.50;;;;;;6155372;28;81227;-69
2022/05/30 00:39:40;;;;;;;3.85;2.22;;;22.20;50.10;;;;;;6164967;28;81594;-69
2022/05/30 00:42:40;;;;;;;4.80;2.22;;;22.20;49.50;;;;;;6160801;28;80997;-69
2022/05/30 00:45:41;;;;;;;3.58;1.95;;;22.20;49.40;;;;;;6143936;28;81445;-69
2022/05/30 00:48:42;;;;;;;3.75;2.33;;;22.20;49.90;;;;;;6146424;28;80923;-69
2022/05/30 00:51:42;;;;;;;4.63;2.22;;;22.20;49.50;;;;;;6159869;28;83565;-69
2022/05/30 00:54:43;;;;;;;3.90;1.92;;;22.20;49.80;;;;;;6148268;28;80374;-69
2022/05/30 00:57:43;;;;;;;3.35;2.17;;;22.20;49.70;;;;;;6157425;28;80461;-68
2022/05/30 01:00:44;;;;;;;3.47;2.22;;;22.10;49.60;;;;;;6142835;28;80466;-69
2022/05/30 01:07:04;;;;;;;2.67;2.22;;;22.10;49.60;;;;;;6149495;28;83057;-69
2022/05/30 01:10:06;;;;;;;4.20;2.15;;;22.10;49.80;;;;;;6144676;28;80014;-69
2022/05/30 01:13:07;;;;;;;4.00;2.22;;;22.10;49.70;;;;;;6156062;28;83518;-69
2022/05/30 01:16:07;;;;;;;3.03;2.08;;;22.10;49.70;;;;;;6145065;28;83384;-70
2022/05/30 01:19:08;;;;;;;2.30;1.90;;;22.10;49.90;;;;;;6152526;28;83173;-70
2022/05/30 01:22:08;;;;;;;4.43;2.63;;;22.10;49.80;;;;;;6157700;28;81027;-69
2022/05/30 01:25:12;;;;;;;3.53;2.28;;;22.10;49.80;;;;;;6144209;28;82691;-70
2022/05/30 01:28:44;;;;;;;5.57;2.53;;;22.10;50.00;;;;;;6139142;28;83583;-70
2022/05/30 01:31:45;;;;;;;3.75;2.45;;;22.20;49.80;;;;;;6140989;28;82247;-69
2022/05/30 01:34:46;;;;;;;4.88;2.05;;;22.10;49.90;;;;;;6148645;28;83121;-70
2022/05/30 01:37:46;;;;;;;3.97;2.20;;;22.10;49.90;;;;;;6142794;28;83363;-70
2022/05/30 01:40:48;;;;;;;3.38;2.15;;;22.10;49.80;;;;;;6141710;28;83282;-70
2022/05/30 01:43:48;;;;;;;3.58;2.25;;;22.10;50.00;;;;;;6147800;28;81017;-70
2022/05/30 01:46:49;;;;;;;4.97;2.65;;;22.10;50.00;;;;;;6140857;28;83131;-69
2022/05/30 01:49:50;;;;;;;2.85;1.95;;;22.10;50.10;;;;;;6141845;28;83138;-70
2022/05/30 01:52:53;;;;;;;3.03;2.05;;;22.10;49.90;;;;;;6147702;28;82439;-72
2022/05/30 01:56:09;;;;;;;;;;;22.10;50.10;;;;;;6144102;28;80677;-70
2022/05/30 01:59:10;;;;;;;4.65;2.33;;;22.10;50.10;;;;;;6165309;28;82000;-67
2022/05/30 02:02:13;;;;;;;3.25;2.10;;;22.10;50.10;;;;;;6160286;28;80535;-67
2022/05/30 02:05:14;;;;;;;4.70;2.38;;;22.10;50.00;;;;;;6147879;28;83619;-67
2022/05/30 02:08:18;;;;;;;3.75;2.33;;;22.10;50.20;;;;;;6144921;28;83802;-67
2022/05/30 02:11:19;;;;;;;5.20;2.65;;;22.10;50.20;;;;;;6151737;28;82903;-67
2022/05/30 02:14:20;;;;;;;5.65;2.65;;;22.10;50.50;;;;;;6141128;28;82151;-67
2022/05/30 02:17:21;;;;;;;4.85;2.63;;;22.10;50.20;;;;;;6147151;28;82667;-67
2022/05/30 02:20:21;;;;;;;4.97;2.45;;;22.10;50.20;;;;;;6149271;28;83209;-67
2022/05/30 02:23:22;;;;;;;4.05;2.45;;;22.10;50.20;;;;;;6142372;28;82960;-66
2022/05/30 02:26:22;;;;;;;2.95;2.00;;;22.10;50.20;;;;;;6148832;28;82017;-67
2022/05/30 02:29:23;;;;;;;4.63;2.83;;;22.00;50.40;;;;;;6147398;28;83114;-67
2022/05/30 02:32:31;;;;;;;4.80;2.33;;;22.00;50.30;;;;;;6151922;28;82677;-67
2022/05/30 02:38:51;;;;;;;5.97;2.80;;;22.00;50.60;;;;;;6139791;28;79995;-67
2022/05/30 02:42:18;;;;;;;;;;;22.00;50.30;;;;;;6152745;28;82161;-66
2022/05/30 02:45:19;;;;;;;4.72;2.40;;;22.00;50.50;;;;;;6163750;28;82975;-66
2022/05/30 02:48:21;;;;;;;4.35;2.33;;;22.10;50.40;;;;;;6138672;28;80691;-66
2022/05/30 02:51:22;;;;;;;4.53;2.45;;;22.00;50.40;;;;;;6151443;28;83609;-67
2022/05/30 02:54:22;;;;;;;5.60;3.13;;;22.00;50.50;;;;;;6156689;28;83442;-67
2022/05/30 02:57:42;;;;;;;6.03;2.75;;;22.00;50.50;;;;;;6132481;28;81601;-67
2022/05/30 03:00:42;;;;;;;7.22;3.15;;;22.00;50.70;;;;;;6148435;28;83482;-66
2022/05/30 03:03:44;;;;;;;4.00;2.35;;;22.00;50.50;;;;;;6124103;28;83184;-66
2022/05/30 03:06:45;;;;;;;3.15;2.10;;;22.00;50.40;;;;;;6148959;28;80433;-66
2022/05/30 03:09:45;;;;;;;5.88;3.42;;;22.00;50.70;;;;;;6156887;28;83294;-67
2022/05/30 03:13:15;;;;;;;3.60;2.58;;;22.00;50.70;;;;;;6155276;28;80811;-68
2022/05/30 03:16:16;;;;;;;4.93;2.75;;;22.00;50.50;;;;;;6158437;28;80491;-68
2022/05/30 03:19:18;;;;;;;4.68;2.50;;;22.00;50.40;;;;;;6144661;28;87289;-69
2022/05/30 03:22:18;;;;;;;5.15;2.55;;;22.00;50.60;;;;;;6144157;28;83103;-69
2022/05/30 03:25:51;;;;;;;5.10;2.97;;;22.00;50.60;;;;;;6159375;28;83605;-68
2022/05/30 03:28:53;;;;;;;4.28;2.78;;;22.00;50.60;;;;;;6152766;28;81531;-68
2022/05/30 03:31:54;;;;;;;4.28;2.50;;;22.00;50.60;;;;;;6149687;28;80354;-69
2022/05/30 03:34:54;;;;;;;5.30;2.72;;;22.00;50.60;;;;;;6148759;28;81537;-69
2022/05/30 03:37:56;;;;;;;4.15;2.35;;;22.00;50.60;;;;;;6144913;28;82757;-68
2022/05/30 03:41:19;;;;;;;4.47;2.40;;;22.00;50.70;;;;;;6148763;28;80455;-68
2022/05/30 03:44:27;;;;;;;5.13;2.65;;;22.00;50.80;;;;;;6150439;28;82548;-69
2022/05/30 03:47:27;;;;;;;8.45;3.15;;;22.00;50.90;;;;;;6157039;28;83526;-69
2022/05/30 03:50:30;;;;;;;4.97;2.78;;;22.00;50.80;;;;;;6161220;28;83300;-69
2022/05/30 03:53:30;;;;;;;3.95;2.80;;;22.00;50.80;;;;;;6147877;28;80949;-69
2022/05/30 03:56:31;;;;;;;5.50;2.67;;;22.00;50.60;;;;;;6149336;28;81400;-69
2022/05/30 03:59:31;;;;;;;4.43;2.75;;;22.00;51.00;;;;;;6156031;28;83776;-69
2022/05/30 04:02:32;;;;;;;4.35;2.75;;;22.00;50.80;;;;;;6153535;28;81437;-69
2022/05/30 04:05:33;;;;;;;4.57;2.40;;;22.00;50.90;;;;;;6151269;28;83111;-69
2022/05/30 04:08:33;;;;;;;4.40;2.67;;;22.00;51.10;;;;;;6161001;28;83184;-69
2022/05/30 04:11:54;;;;;;;4.85;2.35;;;22.00;51.60;;;;;;6151683;28;81564;-68
2022/05/30 04:15:14;;;;;;;5.63;2.30;;;22.00;51.60;;;;;;6152087;28;81658;-70
2022/05/30 04:18:15;;;;;;;9.13;3.25;;;22.00;51.60;;;;;;6145886;28;83332;-70
2022/05/30 04:21:16;;;;;;;6.43;2.50;;;22.00;51.70;;;;;;6146680;28;83129;-68
2022/05/30 04:24:17;;;;;;;6.03;2.80;;;22.00;51.50;;;;;;6157605;28;83197;-67
2022/05/30 04:27:26;;;;;;;5.53;2.38;;;22.00;52.30;;;;;;6149792;28;82863;-68
2022/05/30 04:30:26;;;;;;;6.45;2.50;;;22.00;52.00;;;;;;6155079;28;83641;-67
2022/05/30 04:33:28;;;;;;;6.35;2.70;;;22.00;52.30;;;;;;6149267;28;83377;-68
2022/05/30 04:36:28;;;;;;;10.65;2.63;;;22.00;52.70;;;;;;6149081;28;88046;-69
2022/05/30 04:39:30;;;;;;;10.30;3.28;;;22.00;52.50;;;;;;6140814;28;83305;-68
2022/05/30 04:42:30;;;;;;;5.38;3.03;;;22.10;53.50;;;;;;6154367;28;80275;-68
2022/05/30 04:45:31;;;;;;;5.28;2.63;;;22.10;53.60;;;;;;6148029;28;80563;-68
2022/05/30 04:48:50;;;;;;;6.03;2.90;;;22.20;53.80;;;;;;6140875;28;82956;-68
2022/05/30 04:51:51;;;;;;;5.72;2.97;;;22.20;53.90;;;;;;6152856;28;82789;-68
2022/05/30 04:54:51;;;;;;;6.57;3.30;;;22.20;54.20;;;;;;6155230;28;80309;-68
2022/05/30 04:58:07;;;;;;;6.20;3.53;;;22.20;54.40;;;;;;6154436;28;82644;-67
2022/05/30 05:01:30;;;;;;;13.25;3.22;;;22.30;54.10;;;;;;6145548;28;84565;-68
2022/05/30 05:04:30;;;;;;;5.50;2.63;;;22.20;53.80;;;;;;6136452;28;83549;-71
2022/05/30 05:07:31;;;;;;;4.93;2.22;;;22.30;53.90;;;;;;6148292;28;83253;-68
2022/05/30 05:10:50;;;;;;;9.15;3.00;;;22.30;54.00;;;;;;6148635;28;83251;-68
2022/05/30 05:14:08;;;;;;;9.20;3.97;;;22.30;53.70;;;;;;6149724;28;81623;-66
2022/05/30 05:17:27;;;;;;;4.45;2.67;;;22.20;53.30;;;;;;6155100;28;80380;-66
2022/05/30 05:20:29;;;;;;;7.68;3.15;;;22.20;54.10;;;;;;6145239;28;82878;-69
2022/05/30 05:23:29;;;;;;;7.38;3.28;;;22.20;54.00;;;;;;6139472;28;83419;-68
2022/05/30 05:26:34;;;;;;;5.40;2.70;;;22.10;53.90;;;;;;6135333;28;80805;-67
2022/05/30 05:29:46;;;;;;;5.30;3.10;;;22.10;54.20;;;;;;6154925;28;81882;-67
2022/05/30 05:32:48;;;;;;;6.70;3.05;;;22.10;54.00;;;;;;6149313;28;82977;-66
2022/05/30 05:35:49;;;;;;;7.25;3.50;;;22.10;54.50;;;;;;6145599;28;82179;-70
2022/05/30 05:38:50;;;;;;;7.85;3.33;;;22.10;54.90;;;;;;6145846;28;81003;-70
2022/05/30 05:42:08;;;;;;;7.75;3.20;;;22.10;54.80;;;;;;6152345;28;81596;-69
2022/05/30 05:45:09;;;;;;;9.23;3.40;;;22.10;54.90;;;;;;6153185;28;85671;-71
2022/05/30 05:48:09;;;;;;;7.35;3.90;;;22.10;54.30;;;;;;6146268;28;82756;-71
2022/05/30 05:51:10;;;;;;;5.05;2.80;;;22.10;54.80;;;;;;6139258;28;81278;-72
2022/05/30 05:54:11;;;;;;;6.85;3.92;;;22.10;55.20;;;;;;6139221;28;82728;-72
2022/05/30 05:57:12;;;;;;;13.38;3.42;;;22.10;55.30;;;;;;6149341;28;83898;-70
2022/05/30 06:00:15;;;;;;;7.60;3.40;;;22.10;54.90;;;;;;6145187;28;80510;-71
2022/05/30 06:03:22;;;;;;;4.72;3.20;;;22.10;54.90;;;;;;6147262;28;81265;-71
2022/05/30 06:06:41;;;;;;;6.95;3.35;;;22.10;55.00;;;;;;6142425;28;80275;-71
2022/05/30 06:09:43;;;;;;;13.27;4.38;;;22.10;54.50;;;;;;6137499;28;82613;-71
2022/05/30 06:12:48;;;;;;;6.55;3.22;;;22.00;54.90;;;;;;6144853;28;83251;-73
2022/05/30 06:15:48;;;;;;;6.97;3.85;;;22.00;54.40;;;;;;6144715;28;82593;-70
2022/05/30 06:18:54;;;;;;;7.57;4.38;;;22.00;54.30;;;;;;6136018;28;81947;-71
2022/05/30 06:21:54;;;;;;;6.43;3.78;;;22.00;55.10;;;;;;6151303;28;80575;-73
2022/05/30 06:24:55;;;;;;;7.57;5.07;;;22.00;55.00;;;;;;6137805;28;81438;-70
2022/05/30 06:28:19;;;;;;;9.77;4.35;;;22.00;54.70;;;;;;6166988;28;80936;-69
2022/05/30 06:31:32;;;;;;;7.70;4.30;;;22.00;54.70;;;;;;6157873;28;87123;-66
2022/05/30 06:34:33;;;;;;;7.40;4.57;;;22.10;55.00;;;;;;6155919;28;80377;-70
2022/05/30 06:37:33;;;;;;;7.03;4.05;;;22.10;53.90;;;;;;6148137;28;82516;-68
2022/05/30 06:40:34;;;;;;;11.32;4.60;;;22.10;53.90;;;;;;6142716;28;83171;-69
2022/05/30 06:43:50;;;;;;;10.32;5.47;;;22.10;54.50;;;;;;6144171;28;82867;-67
2022/05/30 06:47:09;;;;;;;9.73;5.50;;;22.10;54.40;;;;;;6153055;28;80430;-69
2022/05/30 06:50:28;;;;;;;9.27;4.60;;;22.10;53.60;;;;;;6141015;28;81118;-68
2022/05/30 06:53:28;;;;;;;8.20;5.30;;;22.10;53.50;;;;;;6147856;28;83071;-69
2022/05/30 06:56:31;;;;;;;9.10;5.70;;;22.10;53.80;;;;;;6141112;28;81377;-68
2022/05/30 06:59:31;;;;;;;12.35;5.78;;;22.10;53.80;;;;;;6151001;28;80311;-69
2022/05/30 07:02:33;;;;;;;7.68;5.63;;;22.10;54.10;;;;;;6138443;28;80896;-69
2022/05/30 07:05:52;;;;;;;7.30;5.15;;;22.10;54.80;;;;;;6160668;28;80239;-68
2022/05/30 07:09:13;;;;;;;10.68;5.93;;;22.10;54.70;;;;;;6138674;28;80568;-69
2022/05/30 07:12:52;;;;;;;9.38;5.35;;;22.10;54.00;;;;;;6142575;28;80536;-72
2022/05/30 07:15:53;;;;;;;8.93;5.40;;;22.10;54.10;;;;;;6122060;28;83295;-70
2022/05/30 07:18:57;;;;;;;8.25;4.85;;;22.10;54.60;;;;;;6122607;28;81589;-71
2022/05/30 07:21:58;;;;;;;10.30;6.18;;;22.10;54.50;;;;;;6121388;28;82943;-68
2022/05/30 07:25:17;;;;;;;10.38;5.57;;;22.10;54.40;;;;;;6159929;28;80226;-67
2022/05/30 07:28:47;;;;;;;10.30;5.53;;;22.10;53.80;;;;;;6158221;28;85024;-67
2022/05/30 07:32:06;;;;;;;8.82;4.75;;;22.10;53.60;;;;;;6141922;28;80745;-67
2022/05/30 07:35:25;;;;;;;7.75;4.60;;;22.10;53.80;;;;;;6143558;28;80368;-68
2022/05/30 07:38:44;;;;;;;9.45;4.93;;;22.10;54.10;;;;;;6152991;28;80390;-68
2022/05/30 07:42:03;;;;;;;7.35;4.63;;;22.10;53.80;;;;;;6137917;28;80666;-68
2022/05/30 07:45:31;;;;;;;7.78;4.90;;;22.10;53.70;;;;;;6136214;28;83293;-69
2022/05/30 07:48:40;;;;;;;8.68;4.80;;;22.10;53.60;;;;;;6152257;28;82359;-69
2022/05/30 07:52:04;;;;;;;8.85;5.32;;;22.10;53.30;;;;;;6136165;28;80437;-69
2022/05/30 07:55:12;;;;;;;7.28;4.10;;;22.10;53.50;;;;;;6150990;28;81993;-66
2022/05/30 07:58:13;;;;;;;7.93;4.72;;;22.00;53.60;;;;;;6134545;28;81380;-66
2022/05/30 08:01:14;;;;;;;7.13;3.97;;;22.10;53.10;;;;;;6140526;28;80687;-66
2022/05/30 08:04:16;;;;;;;13.13;4.38;;;22.10;53.20;;;;;;6155638;28;82746;-66
2022/05/30 08:07:20;;;;;;;11.27;4.53;;;22.10;53.80;;;;;;6147268;28;80604;-67
2022/05/30 08:10:32;;;;;;;11.00;4.70;;;22.20;54.10;;;;;;6147120;28;86192;-68
2022/05/30 08:13:33;;;;;;;21.13;5.28;;;22.20;55.40;;;;;;6149192;28;82295;-69
2022/05/30 08:16:37;;;;;;;14.57;5.72;;;22.20;55.70;;;;;;6156889;28;82801;-69
2022/05/30 08:19:40;;;;;;;12.35;5.15;;;22.30;56.10;;;;;;6146978;28;82717;-68
2022/05/30 08:22:40;;;;;;;19.10;5.97;;;22.30;57.20;;;;;;6150276;28;83070;-68
2022/05/30 08:25:43;;;;;;;14.57;5.32;;;22.30;57.20;;;;;;6156741;28;81766;-68
2022/05/30 08:28:45;;;;;;;14.25;5.55;;;22.30;58.00;;;;;;6158275;28;82373;-68
2022/05/30 08:31:46;;;;;;;9.00;5.15;;;22.30;58.50;;;;;;6147971;28;82500;-68
2022/05/30 08:35:09;;;;;;;13.13;6.30;;;22.30;57.90;;;;;;6147109;28;80375;-69
2022/05/30 08:38:11;;;;;;;15.73;6.68;;;22.30;57.80;;;;;;6130280;28;83040;-67
2022/05/30 08:44:31;;;;;;;10.65;5.25;;;22.30;58.00;;;;;;6146392;28;83343;-67
2022/05/30 08:47:52;;;;;;;17.20;5.90;;;22.30;58.70;;;;;;6134723;28;81709;-68
2022/05/30 08:50:53;;;;;;;9.25;4.80;;;22.30;59.60;;;;;;6158197;28;83327;-66
2022/05/30 08:53:54;;;;;;;14.27;5.40;;;22.30;59.30;;;;;;6145986;28;82520;-69
2022/05/30 08:56:55;;;;;;;12.35;5.30;;;22.30;58.90;;;;;;6136548;28;83308;-69
2022/05/30 09:00:27;;;;;;;12.85;5.10;;;22.30;59.00;;;;;;6149804;28;83078;-68
2022/05/30 09:04:06;;;;;;;12.98;5.18;;;22.40;58.80;;;;;;6152079;28;80386;-69
2022/05/30 09:07:07;;;;;;;13.25;5.93;;;22.40;58.80;;;;;;6154444;28;80561;-69
2022/05/30 09:10:10;;;;;;;10.18;4.97;;;22.50;58.50;;;;;;6162506;28;80457;-69
2022/05/30 09:13:11;;;;;;;14.60;5.53;;;22.50;58.50;;;;;;6144940;28;80548;-68
2022/05/30 09:16:34;;;;;;;13.00;5.30;;;22.60;57.80;;;;;;6155792;28;85149;-69
2022/05/30 09:19:41;;;;;;;10.45;4.63;;;22.60;58.10;;;;;;6160565;28;83242;-69
2022/05/30 09:22:42;;;;;;;10.60;4.85;;;22.60;57.70;;;;;;6148137;28;82881;-69
2022/05/30 09:26:01;;;;;;;11.25;5.05;;;22.70;57.60;;;;;;6148845;28;82358;-69
2022/05/30 09:29:21;;;;;;;8.25;4.13;;;22.80;57.10;;;;;;6151985;28;82247;-70
2022/05/30 09:32:40;;;;;;;7.40;3.80;;;22.80;56.80;;;;;;6169108;28;80681;-69
2022/05/30 09:36:06;;;;;;;7.88;4.55;;;22.90;56.90;;;;;;6158575;28;81426;-69
2022/05/30 09:39:29;;;;;;;12.85;5.28;;;22.90;57.00;;;;;;6149410;28;80461;-71
2022/05/30 09:42:30;;;;;;;9.10;4.47;;;22.90;57.70;;;;;;6153695;28;82343;-69
2022/05/30 09:45:31;;;;;;;15.88;6.03;;;22.90;57.50;;;;;;6149143;28;81535;-69
2022/05/30 09:48:54;;;;;;;133.38;50.90;;;22.90;58.40;;;;;;6149730;28;81585;-70
2022/05/30 09:52:00;;;;;;;151.27;57.88;;;22.90;57.20;;;;;;6152964;28;83319;-70
2022/05/30 09:55:03;;;;;;;167.23;62.88;;;22.90;57.60;;;;;;6153896;28;83422;-69
2022/05/30 09:58:04;;;;;;;139.43;53.10;;;22.90;57.80;;;;;;6151105;28;85745;-69
2022/05/30 10:01:10;;;;;;;136.70;52.30;;;22.90;57.50;;;;;;6137169;28;85671;-69
2022/05/30 10:04:11;;;;;;;139.98;50.53;;;22.90;57.70;;;;;;6144054;28;85789;-69
2022/05/30 10:07:29;;;;;;;134.95;51.33;;;22.90;58.00;;;;;;6160764;28;90279;-69
2022/05/30 10:10:35;;;;;;;149.07;59.45;;;22.90;57.60;;;;;;6146564;28;85179;-67
2022/05/30 10:13:36;;;;;;;161.50;62.50;;;22.90;57.60;;;;;;6154686;28;86082;-69
2022/05/30 10:16:55;;;;;;;199.52;78.63;;;22.90;58.20;;;;;;6152454;28;83168;-68
2022/05/30 10:19:56;;;;;;;194.52;71.38;;;22.90;57.90;;;;;;6151280;28;85988;-67
2022/05/30 10:30:46;;;;;;;146.75;54.88;;;22.90;58.50;;;;;;6138642;28;83817;-71
2022/05/30 10:34:07;;;;;;;128.70;49.30;;;22.90;58.40;;;;;;6153839;28;83190;-70
2022/05/30 10:37:09;;;;;;;136.40;47.08;;;22.90;58.20;;;;;;6145383;28;85946;-72
2022/05/30 10:40:09;;;;;;;118.95;46.50;;;22.90;58.40;;;;;;6135206;28;84768;-72
2022/05/30 10:43:10;;;;;;;100.22;39.50;;;22.90;58.40;;;;;;6147273;28;85847;-71
2022/05/30 10:46:11;;;;;;;103.68;38.70;;;22.90;58.70;;;;;;6142316;28;85523;-72
2022/05/30 10:49:11;;;;;;;98.97;36.80;;;22.90;58.90;;;;;;6146035;28;84483;-71
2022/05/30 10:52:13;;;;;;;91.38;35.45;;;22.90;58.60;;;;;;6140693;28;86053;-71
2022/05/30 10:55:23;;;;;;;84.97;34.65;;;22.90;58.60;;;;;;6147251;28;85365;-71
2022/05/30 10:58:25;;;;;;;87.82;33.75;;;22.90;58.40;;;;;;6140274;28;83736;-70
2022/05/30 11:01:25;;;;;;;86.30;33.03;;;22.90;59.20;;;;;;6133979;28;85878;-71
2022/05/30 11:04:26;;;;;;;79.25;30.20;;;22.90;58.60;;;;;;6146759;28;86107;-70
2022/05/30 11:07:27;;;;;;;80.97;29.38;;;22.90;58.80;;;;;;6141414;28;90090;-68
2022/05/30 11:10:27;;;;;;;77.03;28.40;;;22.90;58.80;;;;;;6152704;28;83233;-71
2022/05/30 11:13:28;;;;;;;66.00;26.45;;;22.90;58.50;;;;;;6149801;28;85845;-71
2022/05/30 11:16:49;;;;;;;72.53;24.42;;;22.90;58.40;;;;;;6153492;28;85987;-69
2022/05/30 11:20:08;;;;;;;68.07;26.13;;;22.90;58.60;;;;;;6154242;28;83017;-70
2022/05/30 11:23:29;;;;;;;52.88;22.02;;;22.90;58.40;;;;;;6151224;28;85865;-70
2022/05/30 11:26:29;;;;;;;61.72;22.95;;;22.90;58.40;;;;;;6146785;28;84491;-70
2022/05/30 11:29:30;;;;;;;54.47;20.17;;;22.90;58.40;;;;;;6143334;28;83201;-68
2022/05/30 11:32:30;;;;;;;52.50;18.33;;;22.90;58.60;;;;;;6148148;28;83337;-66
2022/05/30 11:35:32;;;;;;;50.55;19.05;;;23.00;58.00;;;;;;6153230;28;83171;-69
2022/05/30 11:38:32;;;;;;;55.58;18.88;;;22.90;58.00;;;;;;6139756;28;83450;-70
2022/05/30 11:41:33;;;;;;;44.03;17.33;;;23.00;58.30;;;;;;6139139;28;82981;-72
2022/05/30 11:44:34;;;;;;;38.05;16.33;;;23.00;58.20;;;;;;6143452;28;83037;-71
2022/05/30 11:47:34;;;;;;;41.22;16.10;;;23.00;58.10;;;;;;6142813;28;84046;-70
2022/05/30 11:50:35;;;;;;;37.83;14.57;;;23.00;58.40;;;;;;6140538;28;85743;-71
2022/05/30 11:53:35;;;;;;;29.25;12.55;;;23.00;58.50;;;;;;6138956;28;83029;-70
2022/05/30 11:56:36;;;;;;;33.63;12.90;;;23.00;58.40;;;;;;6143014;28;84152;-71
2022/05/30 11:59:36;;;;;;;26.33;12.40;;;23.00;58.40;;;;;;6142249;28;82865;-70
2022/05/30 12:02:37;;;;;;;26.52;11.55;;;23.00;58.50;;;;;;6147328;28;83464;-71
2022/05/30 12:05:37;;;;;;;25.08;11.18;;;23.00;58.40;;;;;;6156852;28;82861;-69
2022/05/30 12:08:38;;;;;;;26.80;11.23;;;23.00;58.60;;;;;;6158079;28;83199;-70
2022/05/30 12:11:38;;;;;;;21.73;8.55;;;23.00;58.40;;;;;;6146741;28;83057;-69
2022/05/30 12:14:39;;;;;;;16.00;7.82;;;23.00;58.60;;;;;;6152576;28;83921;-69
2022/05/30 12:23:47;;;;;;;19.33;9.57;;;23.00;58.60;;;;;;6160655;28;80607;-70
2022/05/30 12:24:19;;;;;;;20.98;7.93;;;23.00;58.40;;;;;;6142352;28;80367;-70
2022/05/30 12:27:19;;;;;;;15.43;7.47;;;23.00;58.40;;;;;;6139851;28;80741;-70
2022/05/30 12:30:20;;;;;;;15.55;6.65;;;23.00;58.40;;;;;;6143764;28;80560;-70
2022/05/30 12:33:20;;;;;;;18.88;6.78;;;23.10;58.30;;;;;;6144809;28;80475;-70
2022/05/30 12:36:21;;;;;;;15.13;6.55;;;23.10;58.00;;;;;;6153080;28;80673;-70
2022/05/30 12:39:21;;;;;;;15.43;6.68;;;23.10;58.30;;;;;;6144975;28;80516;-71
2022/05/30 12:42:22;;;;;;;13.80;5.72;;;23.00;58.10;;;;;;6146775;28;81187;-70
2022/05/30 12:45:22;;;;;;;11.48;5.20;;;23.10;58.10;;;;;;6146901;28;80245;-70
2022/05/30 12:48:23;;;;;;;11.65;5.35;;;23.10;58.20;;;;;;6151551;28;80719;-70
2022/05/30 12:51:23;;;;;;;11.50;5.63;;;23.10;59.00;;;;;;6152687;28;80828;-71
2022/05/30 12:54:24;;;;;;;10.95;4.75;;;23.10;58.30;;;;;;6154238;28;80511;-70
2022/05/30 12:57:24;;;;;;;13.52;5.15;;;23.10;58.20;;;;;;6119798;28;81816;-70
2022/05/30 13:00:25;;;;;;;9.07;4.68;;;23.10;58.30;;;;;;6148933;28;81353;-71
2022/05/30 13:03:25;;;;;;;7.47;4.47;;;23.10;58.10;;;;;;6152805;28;80520;-70
2022/05/30 13:06:26;;;;;;;12.48;5.15;;;23.10;58.20;;;;;;6143135;28;80440;-71
2022/05/30 13:09:30;;;;;;;13.40;3.95;;;23.10;58.30;;;;;;6153521;28;80908;-71
2022/05/30 13:12:51;;;;;;;6.90;3.38;;;23.10;58.00;;;;;;6137630;28;80842;-72
2022/05/30 13:15:50;;;;;;;8.50;3.67;;;23.10;58.50;;;;;;6129163;28;80041;-69
2022/05/30 13:18:51;;;;;;;9.55;3.92;;;23.00;57.90;;;;;;6142833;28;80542;-68
2022/05/30 13:21:51;;;;;;;7.90;4.05;;;23.00;57.40;;;;;;6153144;28;80595;-69
2022/05/30 13:24:52;;;;;;;7.20;4.15;;;23.10;57.60;;;;;;6148150;28;80478;-68
2022/05/30 13:27:52;;;;;;;6.90;4.07;;;23.00;57.70;;;;;;6146757;28;80366;-69
2022/05/30 13:30:53;;;;;;;11.40;4.30;;;23.10;57.60;;;;;;6152736;28;80778;-69
2022/05/30 13:33:53;;;;;;;6.70;3.55;;;23.10;57.60;;;;;;6148911;28;80529;-69
2022/05/30 13:36:54;;;;;;;6.63;3.30;;;23.00;57.40;;;;;;6154932;28;80266;-69
2022/05/30 13:39:54;;;;;;;10.35;3.53;;;23.00;57.60;;;;;;6144517;28;80615;-69
2022/05/30 13:42:55;;;;;;;6.80;2.85;;;23.10;57.60;;;;;;6151032;28;81666;-68
2022/05/30 13:45:57;;;;;;;5.57;3.50;;;23.00;57.40;;;;;;6145668;28;80210;-69
2022/05/30 13:48:57;;;;;;;5.13;3.00;;;23.00;57.40;;;;;;6144250;28;84584;-70
2022/05/30 13:51:58;;;;;;;6.70;3.15;;;23.00;57.50;;;;;;6145460;28;80646;-67
2022/05/30 13:54:58;;;;;;;11.93;4.05;;;23.00;57.40;;;;;;6149913;28;80535;-66
2022/05/30 13:57:59;;;;;;;7.13;3.05;;;23.00;57.50;;;;;;6147675;28;80935;-72
2022/05/30 14:00:59;;;;;;;6.35;3.20;;;23.00;57.30;;;;;;6137335;28;80923;-72
2022/05/30 14:04:03;;;;;;;6.57;2.88;;;23.00;57.60;;;;;;6147071;28;80429;-69
2022/05/30 14:07:04;;;;;;;8.85;2.78;;;23.00;57.50;;;;;;6153129;28;81371;-68
2022/05/30 14:10:05;;;;;;;8.70;3.42;;;23.00;57.60;;;;;;6140433;28;81250;-70
2022/05/30 14:13:05;;;;;;;5.60;3.10;;;23.00;57.80;;;;;;6145265;28;80674;-69
2022/05/30 14:16:06;;;;;;;7.82;3.72;;;23.00;58.00;;;;;;6138590;28;80603;-68
2022/05/30 14:19:06;;;;;;;4.97;2.67;;;23.10;57.80;;;;;;6134580;28;80446;-71
2022/05/30 14:22:07;;;;;;;5.97;2.88;;;23.10;56.10;;;;;;6138638;28;81983;-68
2022/05/30 14:25:07;;;;;;;6.65;2.80;;;23.10;56.10;;;;;;6146394;28;80525;-67
2022/05/30 14:28:08;;;;;;;4.28;2.45;;;23.10;56.40;;;;;;6136822;28;80895;-69
2022/05/30 14:31:08;;;;;;;4.97;2.50;;;23.10;56.10;;;;;;6142920;28;80643;-69
2022/05/30 14:34:09;;;;;;;4.93;2.38;;;23.10;55.80;;;;;;6154628;28;80785;-69
2022/05/30 14:37:09;;;;;;;4.57;2.88;;;23.00;56.00;;;;;;6137944;28;81693;-68
2022/05/30 14:40:10;;;;;;;3.20;2.10;;;23.10;56.30;;;;;;6139267;28;80327;-67
2022/05/30 14:43:10;;;;;;;4.18;2.33;;;23.10;56.60;;;;;;6140422;28;82088;-68
2022/05/30 14:46:11;;;;;;;4.40;2.63;;;23.10;56.20;;;;;;6144961;28;80820;-70
2022/05/30 14:49:12;;;;;;;3.70;2.05;;;23.10;56.20;;;;;;6135842;28;81936;-68
2022/05/30 14:52:15;;;;;;;3.97;2.50;;;23.10;55.80;;;;;;6140621;28;80336;-68
2022/05/30 14:55:16;;;;;;;8.77;2.22;;;23.10;56.00;;;;;;6149377;28;80614;-66
2022/05/30 14:58:16;;;;;;;2.88;2.05;;;23.10;56.10;;;;;;6143396;28;81385;-67
2022/05/30 15:01:17;;;;;;;3.70;2.70;;;23.10;56.10;;;;;;6141213;28;80393;-68
2022/05/30 15:04:18;;;;;;;3.63;2.33;;;23.10;56.10;;;;;;6141406;28;83713;-67
2022/05/30 15:07:18;;;;;;;3.97;2.15;;;23.10;55.80;;;;;;6138666;28;81370;-68
2022/05/30 15:10:19;;;;;;;3.83;2.60;;;23.10;55.80;;;;;;6142458;28;80215;-73
2022/05/30 15:13:19;;;;;;;4.93;2.40;;;23.10;56.00;;;;;;6143104;28;80582;-67
2022/05/30 15:16:20;;;;;;;3.33;2.05;;;23.00;55.20;;;;;;6159623;28;80566;-70
2022/05/30 15:19:21;;;;;;;3.83;2.42;;;23.10;55.40;;;;;;6147920;28;80422;-66
2022/05/30 15:22:22;;;;;;;5.85;2.40;;;23.00;55.60;;;;;;6154175;28;80475;-68
2022/05/30 15:25:25;;;;;;;6.63;2.63;;;23.00;56.00;;;;;;6159427;28;81537;-69
2022/05/30 15:28:26;;;;;;;8.60;2.60;;;23.00;56.00;;;;;;6146731;28;81086;-69
2022/05/30 15:31:26;;;;;;;11.90;3.22;;;23.00;55.90;;;;;;6150114;28;80869;-70
2022/05/30 15:34:28;;;;;;;9.38;2.60;;;23.00;55.60;;;;;;6149801;28;81548;-68
2022/05/30 15:37:28;;;;;;;5.82;2.50;;;23.00;55.40;;;;;;6147770;28;85365;-72
2022/05/30 15:40:29;;;;;;;8.10;2.97;;;23.00;55.80;;;;;;6142457;28;80562;-70
2022/05/30 15:43:29;;;;;;;13.65;3.22;;;23.00;55.90;;;;;;6144895;28;81635;-70
2022/05/30 15:46:30;;;;;;;5.55;2.90;;;23.00;56.00;;;;;;6142501;28;80500;-69
2022/05/30 15:49:31;;;;;;;12.65;2.80;;;23.00;55.90;;;;;;6145130;28;80544;-70
2022/05/30 15:57:17;;;;;;;4.78;2.40;;;23.00;56.10;;;;;;6146425;28;80777;-73
2022/05/30 15:59:11;;;;;;;11.00;2.53;;;23.00;56.40;;;;;;6146192;28;81622;-72
2022/05/30 16:02:11;;;;;;;3.63;2.25;;;22.90;56.50;;;;;;6141728;28;81093;-72
2022/05/30 16:05:13;;;;;;;5.75;2.45;;;22.90;56.50;;;;;;6146204;28;83100;-72
2022/05/30 16:08:13;;;;;;;5.25;2.22;;;23.00;56.50;;;;;;6142899;28;81455;-69
2022/05/30 16:11:14;;;;;;;6.05;2.67;;;23.00;56.40;;;;;;6151604;28;81470;-72
2022/05/30 16:14:14;;;;;;;3.38;2.13;;;22.90;56.30;;;;;;6142422;28;80487;-71
2022/05/30 16:17:15;;;;;;;5.13;2.58;;;22.90;56.40;;;;;;6157525;28;80663;-68
2022/05/30 16:20:16;;;;;;;9.20;2.05;;;23.00;56.40;;;;;;6155036;28;80607;-77